createdAt,value
2018-06-03T00:01:18.921Z,21.48
2018-06-03T00:03:46.590Z,21.43
2018-06-03T00:06:14.199Z,21.35
2018-06-03T00:08:41.846Z,21.58
2018-06-03T00:11:09.450Z,21.48
2018-06-03T00:13:37.206Z,21.43
2018-06-03T00:16:04.958Z,21.52
2018-06-03T00:18:32.632Z,21.38
2018-06-03T00:21:11.928Z,21.53
2018-06-03T00:23:39.579Z,21.46
2018-06-03T00:26:07.234Z,21.59
2018-06-03T00:28:34.878Z,21.61
2018-06-03T00:31:02.500Z,21.68
2018-06-03T00:33:30.147Z,21.74
2018-06-03T00:36:09.714Z,21.75
2018-06-03T00:38:37.373Z,21.73
2018-06-03T00:41:04.986Z,21.66
2018-06-03T00:43:32.650Z,21.65
2018-06-03T00:46:00.271Z,21.70
2018-06-03T00:48:27.921Z,21.68
2018-06-03T00:50:55.532Z,21.51
2018-06-03T00:53:23.186Z,21.44
2018-06-03T00:55:50.848Z,21.53
2018-06-03T00:58:50.890Z,21.26
2018-06-03T01:01:19.819Z,21.24
2018-06-03T01:03:48.763Z,21.03
2018-06-03T01:06:17.768Z,21.13
2018-06-03T01:08:46.743Z,21.02
2018-06-03T01:11:15.740Z,21.03
2018-06-03T01:13:44.695Z,20.95
2018-06-03T01:16:13.671Z,21.00
2018-06-03T01:18:42.607Z,21.01
2018-06-03T01:21:11.599Z,21.03
2018-06-03T01:23:40.561Z,21.04
2018-06-03T01:26:09.558Z,20.96
2018-06-03T01:28:38.563Z,20.97
2018-06-03T01:31:07.681Z,20.97
2018-06-03T01:33:36.618Z,20.84
2018-06-03T01:36:05.610Z,20.91
2018-06-03T01:38:34.590Z,20.80
2018-06-03T01:41:03.610Z,20.87
2018-06-03T01:43:32.667Z,20.88
2018-06-03T01:46:01.662Z,20.89
2018-06-03T01:48:30.626Z,20.89
2018-06-03T01:50:59.632Z,20.76
2018-06-03T01:53:28.594Z,20.81
2018-06-03T01:55:57.622Z,20.66
2018-06-03T01:58:26.591Z,20.77
2018-06-03T02:00:55.593Z,20.79
2018-06-03T02:03:24.550Z,20.71
2018-06-03T02:05:53.571Z,20.41
2018-06-03T02:08:22.570Z,20.45
2018-06-03T02:10:51.572Z,20.31
2018-06-03T02:13:20.531Z,20.28
2018-06-03T02:15:49.479Z,20.37
2018-06-03T02:18:18.371Z,20.24
2018-06-03T02:20:47.321Z,20.33
2018-06-03T02:23:16.303Z,20.32
2018-06-03T02:25:45.283Z,20.07
2018-06-03T02:28:14.223Z,20.23
2018-06-03T02:30:43.217Z,20.20
2018-06-03T02:33:12.157Z,20.22
2018-06-03T02:35:41.130Z,19.85
2018-06-03T02:38:10.113Z,20.04
2018-06-03T02:40:39.101Z,19.68
2018-06-03T02:43:08.135Z,19.66
2018-06-03T02:45:37.149Z,19.64
2018-06-03T02:48:06.159Z,19.79
2018-06-03T02:50:35.182Z,19.79
2018-06-03T02:53:04.148Z,19.36
2018-06-03T02:55:33.140Z,19.56
2018-06-03T02:58:02.150Z,19.88
2018-06-03T03:00:31.129Z,19.79
2018-06-03T03:03:00.124Z,19.95
2018-06-03T03:05:29.055Z,20.12
2018-06-03T03:07:58.052Z,20.29
2018-06-03T03:10:26.996Z,20.33
2018-06-03T03:12:56.006Z,19.89
2018-06-03T03:15:24.992Z,19.56
2018-06-03T03:17:53.982Z,19.70
2018-06-03T03:20:22.933Z,19.53
2018-06-03T03:22:51.911Z,19.72
2018-06-03T03:25:20.855Z,19.81
2018-06-03T03:27:49.862Z,19.95
2018-06-03T03:30:18.775Z,20.03
2018-06-03T03:32:47.722Z,20.03
2018-06-03T03:35:16.622Z,20.10
2018-06-03T03:37:45.567Z,19.87
2018-06-03T03:40:14.470Z,19.74
2018-06-03T03:42:43.431Z,19.46
2018-06-03T03:45:12.359Z,19.82
2018-06-03T03:47:41.315Z,19.94
2018-06-03T03:50:10.231Z,19.64
2018-06-03T03:52:39.231Z,19.71
2018-06-03T03:55:08.146Z,19.89
2018-06-03T03:57:37.100Z,19.89
2018-06-03T04:00:06.046Z,19.90
2018-06-03T04:02:35.019Z,19.96
2018-06-03T04:05:03.931Z,20.21
2018-06-03T04:07:32.883Z,20.16
2018-06-03T04:10:01.791Z,20.00
2018-06-03T04:12:30.759Z,20.04
2018-06-03T04:14:59.704Z,20.07
2018-06-03T04:17:28.669Z,20.18
2018-06-03T04:19:57.598Z,20.40
2018-06-03T04:22:26.550Z,20.40
2018-06-03T04:24:55.503Z,20.24
2018-06-03T04:27:24.473Z,20.19
2018-06-03T04:29:53.442Z,20.61
2018-06-03T04:32:22.385Z,20.80
2018-06-03T04:34:51.275Z,21.01
2018-06-03T04:37:20.262Z,21.31
2018-06-03T04:39:49.163Z,21.48
2018-06-03T04:42:18.115Z,21.72
2018-06-03T04:44:47.014Z,21.15
2018-06-03T04:47:15.980Z,21.19
2018-06-03T04:49:44.907Z,21.24
2018-06-03T04:52:13.855Z,21.91
2018-06-03T04:54:42.756Z,22.09
2018-06-03T04:57:11.722Z,21.33
2018-06-03T04:59:40.870Z,21.05
2018-06-03T05:02:09.966Z,21.23
2018-06-03T05:04:38.897Z,21.23
2018-06-03T05:07:07.838Z,21.92
2018-06-03T05:09:36.766Z,22.21
2018-06-03T05:12:05.760Z,22.01
2018-06-03T05:14:34.674Z,22.62
2018-06-03T05:17:03.619Z,22.67
2018-06-03T05:19:32.550Z,22.73
2018-06-03T05:22:01.512Z,22.85
2018-06-03T05:24:30.414Z,22.58
2018-06-03T05:26:59.393Z,22.85
2018-06-03T05:29:28.335Z,23.21
2018-06-03T05:31:57.299Z,23.16
2018-06-03T05:34:26.238Z,23.03
2018-06-03T05:36:55.234Z,22.84
2018-06-03T05:39:24.229Z,23.02
2018-06-03T05:41:53.154Z,22.76
2018-06-03T05:44:22.142Z,23.51
2018-06-03T05:46:51.090Z,23.12
2018-06-03T05:49:20.090Z,23.35
2018-06-03T05:51:49.036Z,23.05
2018-06-03T05:54:18.006Z,22.73
2018-06-03T05:56:46.941Z,22.98
2018-06-03T05:59:15.934Z,22.89
2018-06-03T06:01:44.882Z,22.95
2018-06-03T06:04:13.846Z,23.70
2018-06-03T06:06:42.774Z,24.19
2018-06-03T06:09:11.747Z,24.20
2018-06-03T06:11:40.700Z,24.72
2018-06-03T06:14:09.701Z,24.75
2018-06-03T06:16:38.639Z,24.61
2018-06-03T06:19:07.629Z,25.08
2018-06-03T06:21:36.577Z,25.34
2018-06-03T06:24:05.568Z,25.48
2018-06-03T06:26:34.502Z,25.36
2018-06-03T06:29:03.494Z,25.16
2018-06-03T06:31:32.413Z,25.50
2018-06-03T06:34:01.359Z,25.66
2018-06-03T06:36:30.368Z,25.63
2018-06-03T06:38:59.374Z,25.45
2018-06-03T06:41:28.344Z,25.14
2018-06-03T06:43:57.344Z,25.81
2018-06-03T06:46:26.320Z,25.83
2018-06-03T06:48:55.340Z,26.08
2018-06-03T06:51:24.330Z,25.92
2018-06-03T06:53:53.329Z,25.75
2018-06-03T06:56:22.350Z,25.37
2018-06-03T06:58:51.364Z,24.93
2018-06-03T07:01:20.351Z,25.14
2018-06-03T07:03:49.353Z,25.64
2018-06-03T07:06:18.337Z,25.67
2018-06-03T07:08:47.320Z,26.10
2018-06-03T07:11:16.246Z,26.19
2018-06-03T07:13:45.241Z,26.42
2018-06-03T07:16:14.183Z,26.41
2018-06-03T07:18:43.155Z,26.78
2018-06-03T07:21:12.126Z,26.36
2018-06-03T07:23:41.140Z,26.13
2018-06-03T07:26:10.098Z,25.97
2018-06-03T07:28:39.131Z,26.41
2018-06-03T07:31:08.046Z,26.35
2018-06-03T07:33:36.997Z,25.92
2018-06-03T07:36:05.923Z,25.56
2018-06-03T07:38:34.908Z,25.69
2018-06-03T07:41:03.826Z,26.20
2018-06-03T07:43:32.818Z,25.51
2018-06-03T07:46:01.886Z,26.01
2018-06-03T07:48:31.059Z,26.71
2018-06-03T07:50:59.951Z,26.28
2018-06-03T07:53:28.910Z,25.56
2018-06-03T07:55:57.831Z,26.10
2018-06-03T07:58:26.798Z,26.38
2018-06-03T08:00:55.734Z,26.56
2018-06-03T08:03:24.683Z,27.14
2018-06-03T08:05:53.594Z,27.35
2018-06-03T08:08:22.544Z,26.85
2018-06-03T08:10:51.487Z,26.41
2018-06-03T08:13:20.434Z,26.47
2018-06-03T08:15:49.352Z,26.58
2018-06-03T08:18:18.335Z,27.19
2018-06-03T08:20:47.223Z,26.80
2018-06-03T08:23:16.183Z,26.97
2018-06-03T08:25:45.127Z,27.40
2018-06-03T08:28:14.122Z,27.32
2018-06-03T08:30:43.041Z,27.42
2018-06-03T08:33:11.975Z,27.58
2018-06-03T08:35:40.974Z,26.37
2018-06-03T08:38:09.906Z,27.18
2018-06-03T08:40:38.950Z,27.42
2018-06-03T08:43:07.890Z,27.98
2018-06-03T08:45:36.847Z,28.50
2018-06-03T08:48:05.771Z,28.47
2018-06-03T08:50:34.715Z,27.95
2018-06-03T08:53:03.652Z,27.84
2018-06-03T08:55:32.619Z,28.05
2018-06-03T08:58:01.600Z,27.96
2018-06-03T09:00:30.587Z,28.15
2018-06-03T09:02:59.499Z,28.66
2018-06-03T09:05:28.793Z,28.62
2018-06-03T09:07:57.699Z,28.43
2018-06-03T09:10:26.626Z,28.23
2018-06-03T09:12:55.515Z,28.48
2018-06-03T09:15:24.458Z,28.84
2018-06-03T09:17:53.355Z,29.22
2018-06-03T09:20:22.299Z,28.59
2018-06-03T09:22:51.198Z,28.94
2018-06-03T09:25:20.156Z,29.67
2018-06-03T09:27:49.068Z,30.09
2018-06-03T09:30:18.038Z,29.59
2018-06-03T09:32:46.949Z,29.46
2018-06-03T09:35:15.912Z,29.16
2018-06-03T09:37:45.147Z,29.19
2018-06-03T09:40:14.123Z,30.37
2018-06-03T09:42:43.047Z,30.51
2018-06-03T09:45:11.988Z,30.13
2018-06-03T09:47:40.903Z,29.93
2018-06-03T09:50:09.962Z,29.77
2018-06-03T09:52:38.910Z,29.91
2018-06-03T09:55:07.877Z,30.05
2018-06-03T09:57:36.938Z,30.67
2018-06-03T10:00:06.014Z,30.73
2018-06-03T10:02:34.940Z,30.99
2018-06-03T10:05:03.946Z,31.01
2018-06-03T10:07:32.949Z,29.82
2018-06-03T10:10:01.887Z,29.21
2018-06-03T10:12:30.791Z,30.21
2018-06-03T10:14:59.771Z,30.97
2018-06-03T10:17:28.859Z,31.07
2018-06-03T10:19:57.895Z,31.44
2018-06-03T10:22:26.798Z,31.21
2018-06-03T10:24:55.790Z,30.82
2018-06-03T10:27:25.251Z,31.66
2018-06-03T10:29:54.458Z,31.62
2018-06-03T10:32:23.796Z,31.85
2018-06-03T10:34:52.821Z,30.55
2018-06-03T10:37:22.509Z,30.50
2018-06-03T10:39:52.272Z,31.47
2018-06-03T10:42:21.993Z,31.89
2018-06-03T10:44:51.772Z,31.59
2018-06-03T10:47:21.505Z,31.44
2018-06-03T10:49:51.331Z,32.07
2018-06-03T10:52:21.056Z,31.11
2018-06-03T10:54:50.893Z,30.46
2018-06-03T10:57:21.227Z,30.19
2018-06-03T10:59:51.036Z,29.93
2018-06-03T11:02:20.763Z,30.34
2018-06-03T11:04:50.668Z,30.39
2018-06-03T11:07:20.251Z,30.31
2018-06-03T11:09:50.469Z,30.48
2018-06-03T11:12:20.112Z,30.11
2018-06-03T11:14:49.797Z,30.75
2018-06-03T11:17:19.789Z,31.65
2018-06-03T11:19:49.525Z,31.71
2018-06-03T11:22:19.264Z,31.43
2018-06-03T11:24:48.965Z,31.59
2018-06-03T11:27:18.699Z,31.02
2018-06-03T11:29:48.470Z,31.70
2018-06-03T11:32:18.224Z,31.27
2018-06-03T11:34:47.965Z,32.29
2018-06-03T11:37:17.643Z,32.68
2018-06-03T11:39:47.401Z,33.03
2018-06-03T11:42:17.108Z,32.52
2018-06-03T11:44:46.206Z,31.70
2018-06-03T11:47:15.169Z,31.80
2018-06-03T11:49:44.155Z,31.94
2018-06-03T11:52:13.073Z,31.24
2018-06-03T11:54:42.047Z,30.09
2018-06-03T11:57:11.033Z,30.60
2018-06-03T11:59:42.977Z,31.17
2018-06-03T12:02:13.146Z,30.94
2018-06-03T12:04:42.126Z,30.62
2018-06-03T12:07:11.102Z,30.13
2018-06-03T12:09:40.059Z,29.71
2018-06-03T12:12:09.228Z,30.10
2018-06-03T12:14:38.238Z,31.53
2018-06-03T12:17:07.234Z,31.99
2018-06-03T12:19:36.190Z,31.95
2018-06-03T12:22:05.186Z,30.61
2018-06-03T12:24:34.139Z,30.70
2018-06-03T12:27:03.106Z,30.66
2018-06-03T12:29:32.044Z,31.54
2018-06-03T12:32:01.041Z,32.56
2018-06-03T12:34:29.984Z,32.87
2018-06-03T12:36:58.966Z,33.61
2018-06-03T12:39:27.991Z,33.91
2018-06-03T12:41:56.997Z,34.05
2018-06-03T12:44:25.948Z,34.44
2018-06-03T12:46:54.955Z,33.68
2018-06-03T12:49:23.875Z,33.56
2018-06-03T12:51:52.866Z,33.59
2018-06-03T12:54:21.901Z,32.53
2018-06-03T12:56:50.887Z,30.98
2018-06-03T12:59:19.826Z,31.23
2018-06-03T13:01:48.810Z,31.07
2018-06-03T13:04:17.771Z,30.56
2018-06-03T13:06:46.777Z,31.17
2018-06-03T13:09:15.737Z,30.89
2018-06-03T13:11:44.740Z,30.62
2018-06-03T13:14:13.734Z,30.76
2018-06-03T13:16:42.763Z,30.57
2018-06-03T13:19:11.702Z,31.37
2018-06-03T13:21:40.937Z,30.44
2018-06-03T13:24:09.877Z,30.43
2018-06-03T13:26:38.876Z,30.83
2018-06-03T13:29:07.868Z,30.68
2018-06-03T13:31:36.858Z,30.61
2018-06-03T13:34:06.026Z,30.54
2018-06-03T13:36:35.006Z,31.61
2018-06-03T13:39:04.206Z,32.20
2018-06-03T13:41:33.194Z,32.76
2018-06-03T13:44:02.148Z,31.87
2018-06-03T13:46:31.135Z,32.51
2018-06-03T13:49:00.079Z,32.53
2018-06-03T13:51:29.085Z,32.92
2018-06-03T13:53:58.056Z,32.78
2018-06-03T13:56:27.039Z,32.97
2018-06-03T13:58:56.005Z,33.27
2018-06-03T14:01:25.024Z,33.79
2018-06-03T14:03:53.975Z,34.44
2018-06-03T14:06:22.986Z,33.20
2018-06-03T14:08:51.953Z,32.01
2018-06-03T14:11:20.938Z,31.73
2018-06-03T14:13:49.877Z,32.34
2018-06-03T14:16:18.837Z,32.35
2018-06-03T14:18:47.798Z,32.01
2018-06-03T14:21:16.802Z,32.27
2018-06-03T14:23:45.754Z,32.58
2018-06-03T14:26:14.775Z,32.83
2018-06-03T14:28:43.704Z,33.65
2018-06-03T14:31:12.654Z,33.68
2018-06-03T14:33:41.578Z,34.13
2018-06-03T14:36:10.521Z,33.48
2018-06-03T14:38:39.589Z,33.42
2018-06-03T14:41:08.551Z,32.95
2018-06-03T14:43:37.595Z,33.50
2018-06-03T14:46:06.541Z,33.36
2018-06-03T14:48:35.659Z,33.39
2018-06-03T14:51:04.674Z,33.14
2018-06-03T14:53:33.566Z,32.89
2018-06-03T14:56:02.531Z,32.09
2018-06-03T14:58:31.385Z,31.81
2018-06-03T15:01:00.382Z,31.93
2018-06-03T15:03:29.354Z,31.95
2018-06-03T15:05:58.255Z,31.95
2018-06-03T15:08:27.208Z,32.48
2018-06-03T15:10:56.140Z,32.67
2018-06-03T15:13:25.108Z,32.49
2018-06-03T15:15:54.019Z,33.63
2018-06-03T15:18:22.991Z,34.00
2018-06-03T15:20:51.928Z,33.93
2018-06-03T15:23:20.912Z,34.60
2018-06-03T15:25:49.848Z,34.65
2018-06-03T15:28:18.836Z,34.78
2018-06-03T15:30:47.759Z,34.25
2018-06-03T15:33:16.736Z,34.63
2018-06-03T15:35:45.669Z,33.97
2018-06-03T15:38:14.656Z,34.09
2018-06-03T15:40:43.576Z,33.47
2018-06-03T15:43:12.571Z,33.01
2018-06-03T15:45:41.476Z,32.43
2018-06-03T15:48:10.459Z,32.55
2018-06-03T15:50:39.376Z,32.28
2018-06-03T15:53:08.367Z,32.80
2018-06-03T15:55:37.311Z,32.95
2018-06-03T15:58:06.268Z,32.23
2018-06-03T16:00:35.212Z,32.44
2018-06-03T16:03:04.382Z,32.66
2018-06-03T16:05:33.330Z,33.30
2018-06-03T16:08:02.338Z,33.59
2018-06-03T16:10:31.234Z,33.37
2018-06-03T16:13:00.310Z,33.48
2018-06-03T16:15:29.359Z,33.63
2018-06-03T16:17:58.335Z,34.03
2018-06-03T16:20:27.266Z,34.07
2018-06-03T16:22:56.259Z,34.43
2018-06-03T16:25:25.195Z,34.84
2018-06-03T16:27:54.170Z,34.84
2018-06-03T16:30:23.174Z,34.72
2018-06-03T16:32:52.126Z,34.67
2018-06-03T16:35:21.086Z,34.65
2018-06-03T16:37:50.087Z,34.67
2018-06-03T16:40:19.102Z,34.95
2018-06-03T16:42:48.102Z,34.92
2018-06-03T16:45:17.101Z,34.83
2018-06-03T16:47:46.117Z,35.25
2018-06-03T16:50:15.109Z,35.23
2018-06-03T16:52:44.126Z,35.63
2018-06-03T16:55:13.094Z,34.85
2018-06-03T16:57:42.082Z,34.77
2018-06-03T17:00:11.047Z,34.52
2018-06-03T17:02:40.068Z,34.03
2018-06-03T17:05:09.028Z,34.54
2018-06-03T17:07:38.053Z,34.67
2018-06-03T17:10:07.015Z,34.64
2018-06-03T17:12:36.088Z,34.99
2018-06-03T17:15:05.065Z,34.83
2018-06-03T17:17:34.067Z,34.98
2018-06-03T17:20:03.004Z,35.29
2018-06-03T17:22:31.983Z,35.21
2018-06-03T17:25:00.961Z,34.94
2018-06-03T17:27:29.947Z,34.09
2018-06-03T17:29:58.911Z,33.86
2018-06-03T17:32:27.890Z,33.16
2018-06-03T17:34:56.828Z,33.04
2018-06-03T17:37:25.781Z,33.04
2018-06-03T17:39:54.723Z,32.48
2018-06-03T17:42:23.679Z,32.23
2018-06-03T17:44:52.597Z,31.95
2018-06-03T17:47:21.549Z,32.16
2018-06-03T17:49:50.476Z,31.82
2018-06-03T17:52:19.426Z,31.85
2018-06-03T17:54:48.367Z,31.52
2018-06-03T17:57:17.336Z,31.51
2018-06-03T17:59:46.263Z,31.13
2018-06-03T18:02:15.215Z,31.22
2018-06-03T18:04:44.164Z,31.15
2018-06-03T18:07:13.086Z,30.93
2018-06-03T18:09:42.007Z,31.23
2018-06-03T18:12:10.932Z,31.04
2018-06-03T18:14:39.905Z,30.76
2018-06-03T18:17:08.837Z,30.87
2018-06-03T18:19:37.838Z,30.36
2018-06-03T18:22:06.766Z,30.63
2018-06-03T18:24:35.719Z,30.81
2018-06-03T18:27:04.650Z,30.93
2018-06-03T18:29:33.675Z,30.84
2018-06-03T18:32:02.619Z,30.53
2018-06-03T18:34:31.618Z,30.32
2018-06-03T18:37:00.636Z,29.64
2018-06-03T18:39:29.623Z,29.89
2018-06-03T18:41:58.584Z,29.78
2018-06-03T18:44:27.587Z,29.04
2018-06-03T18:46:56.538Z,28.37
2018-06-03T18:49:25.655Z,28.19
2018-06-03T18:51:54.783Z,27.34
2018-06-03T18:54:23.747Z,27.71
2018-06-03T18:56:52.754Z,27.56
2018-06-03T18:59:21.822Z,27.97
2018-06-03T19:01:50.743Z,27.81
2018-06-03T19:04:20.176Z,27.49
2018-06-03T19:06:49.614Z,27.72
2018-06-03T19:09:18.630Z,27.42
2018-06-03T19:11:47.573Z,26.85
2018-06-03T19:14:16.551Z,26.52
2018-06-03T19:16:45.543Z,26.63
2018-06-03T19:19:14.527Z,26.69
2018-06-03T19:21:43.458Z,26.73
2018-06-03T19:24:12.465Z,26.54
2018-06-03T19:26:41.434Z,26.15
2018-06-03T19:29:10.411Z,26.44
2018-06-03T19:31:39.329Z,26.19
2018-06-03T19:34:08.274Z,26.49
2018-06-03T19:36:37.171Z,26.71
2018-06-03T19:39:08.439Z,26.52
2018-06-03T19:41:37.854Z,26.52
2018-06-03T19:44:06.943Z,26.58
2018-06-03T19:46:35.835Z,26.33
2018-06-03T19:49:04.824Z,26.35
2018-06-03T19:51:33.773Z,26.09
2018-06-03T19:54:02.793Z,26.36
2018-06-03T19:56:31.712Z,26.44
2018-06-03T19:59:00.716Z,26.10
2018-06-03T20:01:29.723Z,25.93
2018-06-03T20:03:58.680Z,26.14
2018-06-03T20:06:27.592Z,26.10
2018-06-03T20:08:56.550Z,25.97
2018-06-03T20:11:25.438Z,25.89
2018-06-03T20:13:54.392Z,25.77
2018-06-03T20:16:23.314Z,25.72
2018-06-03T20:18:52.253Z,25.72
2018-06-03T20:21:21.191Z,25.69
2018-06-03T20:23:50.133Z,25.38
2018-06-03T20:26:19.053Z,25.37
2018-06-03T20:28:48.085Z,25.19
2018-06-03T20:31:17.033Z,25.24
2018-06-03T20:33:46.002Z,25.17
2018-06-03T20:36:14.943Z,25.17
2018-06-03T20:38:43.944Z,25.27
2018-06-03T20:41:12.887Z,25.42
2018-06-03T20:43:41.887Z,25.73
2018-06-03T20:46:10.833Z,25.53
2018-06-03T20:48:39.912Z,25.71
2018-06-03T20:51:08.846Z,25.51
2018-06-03T20:53:37.861Z,25.00
2018-06-03T20:56:06.808Z,25.12
2018-06-03T20:58:35.817Z,24.84
2018-06-03T21:01:04.867Z,24.85
2018-06-03T21:03:33.804Z,25.07
2018-06-03T21:06:02.790Z,25.05
2018-06-03T21:08:31.800Z,25.20
2018-06-03T21:11:00.996Z,25.32
2018-06-03T21:13:30.007Z,25.35
2018-06-03T21:15:59.010Z,25.51
2018-06-03T21:18:28.019Z,25.48
2018-06-03T21:20:57.004Z,25.51
2018-06-03T21:23:25.957Z,25.40
2018-06-03T21:25:54.937Z,25.14
2018-06-03T21:28:23.880Z,25.13
2018-06-03T21:30:52.874Z,24.38
2018-06-03T21:33:21.803Z,24.23
2018-06-03T21:35:50.798Z,24.34
2018-06-03T21:38:19.754Z,24.53
2018-06-03T21:40:48.716Z,24.48
2018-06-03T21:43:17.667Z,24.54
2018-06-03T21:45:46.755Z,24.75
2018-06-03T21:48:15.691Z,24.60
2018-06-03T21:50:44.682Z,24.53
2018-06-03T21:53:13.823Z,24.51
2018-06-03T21:55:42.810Z,24.56
2018-06-03T21:58:11.757Z,24.29
2018-06-03T22:00:40.760Z,23.71
2018-06-03T22:03:09.694Z,24.13
2018-06-03T22:05:38.678Z,24.17
2018-06-03T22:08:07.614Z,24.07
2018-06-03T22:10:36.581Z,23.44
2018-06-03T22:13:05.534Z,23.51
2018-06-03T22:15:34.519Z,23.44
2018-06-03T22:18:03.489Z,23.29
2018-06-03T22:20:32.574Z,23.48
2018-06-03T22:23:01.559Z,23.70
2018-06-03T22:25:30.553Z,23.75
2018-06-03T22:27:59.522Z,23.94
2018-06-03T22:30:28.481Z,23.89
2018-06-03T22:32:57.397Z,23.83
2018-06-03T22:35:26.534Z,23.89
2018-06-03T22:37:55.414Z,23.52
2018-06-03T22:40:24.367Z,23.55
2018-06-03T22:42:53.339Z,23.05
2018-06-03T22:45:22.291Z,23.41
2018-06-03T22:47:51.177Z,23.01
2018-06-03T22:50:20.138Z,22.96
2018-06-03T22:52:49.035Z,23.04
2018-06-03T22:55:18.003Z,23.39
2018-06-03T22:57:49.166Z,23.30
2018-06-03T23:00:34.580Z,23.44
2018-06-03T23:03:08.759Z,23.50
2018-06-03T23:05:37.704Z,23.50
2018-06-03T23:08:06.591Z,23.25
2018-06-03T23:10:35.551Z,23.52
2018-06-03T23:13:04.455Z,23.43
2018-06-03T23:15:33.406Z,23.34
2018-06-03T23:18:02.294Z,23.51
2018-06-03T23:20:31.252Z,23.23
2018-06-03T23:23:00.164Z,23.30
2018-06-03T23:25:29.176Z,23.14
2018-06-03T23:27:58.140Z,23.33
2018-06-03T23:30:27.143Z,23.16
2018-06-03T23:32:56.085Z,23.06
2018-06-03T23:35:25.055Z,23.11
2018-06-03T23:37:54.018Z,23.20
2018-06-03T23:40:22.985Z,23.25
2018-06-03T23:42:51.913Z,23.04
2018-06-03T23:45:20.909Z,22.97
2018-06-03T23:47:49.862Z,22.97
2018-06-03T23:50:18.842Z,22.98
2018-06-03T23:52:47.803Z,22.91
2018-06-03T23:55:16.796Z,23.09
2018-06-03T23:57:45.779Z,23.00
